F\v Desperado — FVFQ — position and weather

sailwx.info

Track history (hours):
 
Tides and Currents Weather Stations Pressure Air Temp Water Temp Dewpoint Dewpoint Depression Visibility Wind Speed Wind Dir Waves Ship Positions

F\v Desperado

Last reported at 2018-May-24 22:01 UTC. Time now 2018-May-25 12:46 UTC.
Position N 46°06' W 002°27'.

Type: Fishing. MMSI: 228312000.

Date/timePositionNaut miles runAvg speedWind from/ knotsBaromVisibWave heightAir tempDewpointWater temp
2018-May-24 22:01N 46°06' W 002°27'0 0.3
2018-May-24 21:59N 46°06' W 002°27'0 0.1
2018-May-24 21:30N 46°06' W 002°27'0 0.7
2018-May-24 20:57N 46°06' W 002°27'2 0.9
2018-May-24 19:08N 46°05' W 002°26'0 3.4
2018-May-24 19:00N 46°05' W 002°25'9 2.6
2018-May-24 15:29N 46°04' W 002°38'18 1.7
2018-May-24 05:11N 46°19' W 002°23'2 8.5
2018-May-24 05:00N 46°19' W 002°20'4 8.6
2018-May-24 04:29N 46°21' W 002°14'5 9.0
2018-May-24 03:55N 46°22' W 002°07'4 8.7
2018-May-24 03:30N 46°24' W 002°02'4 8.8
2018-May-24 03:00N 46°25' W 001°57'4 8.7
2018-May-24 02:30N 46°27' W 001°51'4 7.0
2018-May-24 02:00N 46°30' W 001°48'0 1.0
2018-May-24 01:30N 46°30' W 001°47'0 0.7
2018-May-24 01:00N 46°30' W 001°48'3 6.7
2018-May-24 00:30N 46°27' W 001°50'4 8.5
2018-May-24 00:00N 46°25' W 001°56'4 8.3
2018-May-23 23:30N 46°22' W 002°00'27 1.0
2018-May-22 21:34N 46°19' W 002°39'0 0.8
2018-May-22 21:30N 46°19' W 002°39'0 0.7
2018-May-22 21:00N 46°20' W 002°40'1 1.0
2018-May-22 20:16N 46°19' W 002°41'1 1.7
2018-May-22 19:31N 46°19' W 002°42'0 3.8
2018-May-22 19:30N 46°19' W 002°42'32 1.8
2018-May-22 01:04N 46°25' W 001°56'1 8.7
2018-May-22 01:00N 46°25' W 001°55'30 1.0
2018-May-20 19:48N 46°04' W 002°26'11 0.5
2018-May-19 20:30N 46°11' W 002°38'2 3.5
2018-May-19 20:00N 46°12' W 002°35'2 3.2
2018-May-19 19:29N 46°11' W 002°33'19 1.4
2018-May-19 06:00N 46°24' W 002°11'4 7.4
2018-May-19 05:27N 46°24' W 002°05'3 7.5
2018-May-19 05:00N 46°25' W 002°00'4 7.5
2018-May-19 04:30N 46°25' W 001°55'4 7.5
2018-May-19 04:00N 46°27' W 001°50'3 6.5
2018-May-19 03:30N 46°30' W 001°48'0 0.9
2018-May-19 03:00N 46°30' W 001°47'0 0.0
2018-May-19 02:30N 46°30' W 001°47'0 0.1
2018-May-19 02:00N 46°30' W 001°47'3 5.7
2018-May-19 01:30N 46°27' W 001°49'4 8.4
2018-May-19 01:00N 46°26' W 001°55'4 8.2
2018-May-19 00:30N 46°25' W 002°01'57 2.0
2018-May-17 19:57N 46°46' W 003°18'23 0.9
2018-May-16 18:21N 47°06' W 003°31'4 8.5
2018-May-16 17:55N 47°10' W 003°33'4 8.6
2018-May-16 17:27N 47°13' W 003°36'4 8.6
2018-May-16 17:00N 47°17' W 003°38'4 8.7
2018-May-16 16:30N 47°21' W 003°40'4 8.9
2018-May-16 16:00N 47°25' W 003°43'4 8.7
2018-May-16 15:30N 47°29' W 003°46'4 8.6
2018-May-16 14:59N 47°33' W 003°49'20 1.8
2018-May-16 03:47N 47°53' W 003°55'0 0.0
2018-May-16 02:09N 47°53' W 003°55'0 0.0
2018-May-16 01:59N 47°53' W 003°55'0 0.0
2018-May-15 03:13N 47°53' W 003°55'0 0.0
2018-May-15 03:00N 47°53' W 003°55'0 0.0
2018-May-15 02:26N 47°53' W 003°55'0 0.0
2018-May-15 01:58N 47°53' W 003°55'0 0.0
2018-May-15 01:30N 47°53' W 003°55'0 0.0
2018-May-15 00:59N 47°53' W 003°55'0 0.0
2018-May-15 00:11N 47°53' W 003°55'  
Track history (hours):
 
Tides and Currents Weather Stations Pressure Air Temp Water Temp Dewpoint Dewpoint Depression Visibility Wind Speed Wind Dir Waves Ship Positions

F\v Desperado

Last reported at 2018-May-24 22:01 UTC. Time now 2018-May-25 12:46 UTC.
Position N 46°06' W 002°27'.

Type: Fishing. MMSI: 228312000.

Date/timePositionNaut miles runAvg speedWind from/ knotsBaromVisibWave heightAir tempDewpointWater temp
2018-May-24 22:01N 46°06' W 002°27'0 0.3
2018-May-24 21:59N 46°06' W 002°27'0 0.1
2018-May-24 21:30N 46°06' W 002°27'0 0.7
2018-May-24 20:57N 46°06' W 002°27'2 0.9
2018-May-24 19:08N 46°05' W 002°26'0 3.4
2018-May-24 19:00N 46°05' W 002°25'9 2.6
2018-May-24 15:29N 46°04' W 002°38'18 1.7
2018-May-24 05:11N 46°19' W 002°23'2 8.5
2018-May-24 05:00N 46°19' W 002°20'4 8.6
2018-May-24 04:29N 46°21' W 002°14'5 9.0
2018-May-24 03:55N 46°22' W 002°07'4 8.7
2018-May-24 03:30N 46°24' W 002°02'4 8.8
2018-May-24 03:00N 46°25' W 001°57'4 8.7
2018-May-24 02:30N 46°27' W 001°51'4 7.0
2018-May-24 02:00N 46°30' W 001°48'0 1.0
2018-May-24 01:30N 46°30' W 001°47'0 0.7
2018-May-24 01:00N 46°30' W 001°48'3 6.7
2018-May-24 00:30N 46°27' W 001°50'4 8.5
2018-May-24 00:00N 46°25' W 001°56'4 8.3
2018-May-23 23:30N 46°22' W 002°00'27 1.0
2018-May-22 21:34N 46°19' W 002°39'0 0.8
2018-May-22 21:30N 46°19' W 002°39'0 0.7
2018-May-22 21:00N 46°20' W 002°40'1 1.0
2018-May-22 20:16N 46°19' W 002°41'1 1.7
2018-May-22 19:31N 46°19' W 002°42'0 3.8
2018-May-22 19:30N 46°19' W 002°42'32 1.8
2018-May-22 01:04N 46°25' W 001°56'1 8.7
2018-May-22 01:00N 46°25' W 001°55'30 1.0
2018-May-20 19:48N 46°04' W 002°26'11 0.5
2018-May-19 20:30N 46°11' W 002°38'2 3.5
2018-May-19 20:00N 46°12' W 002°35'2 3.2
2018-May-19 19:29N 46°11' W 002°33'19 1.4
2018-May-19 06:00N 46°24' W 002°11'4 7.4
2018-May-19 05:27N 46°24' W 002°05'3 7.5
2018-May-19 05:00N 46°25' W 002°00'4 7.5
2018-May-19 04:30N 46°25' W 001°55'4 7.5
2018-May-19 04:00N 46°27' W 001°50'3 6.5
2018-May-19 03:30N 46°30' W 001°48'0 0.9
2018-May-19 03:00N 46°30' W 001°47'0 0.0
2018-May-19 02:30N 46°30' W 001°47'0 0.1
2018-May-19 02:00N 46°30' W 001°47'3 5.7
2018-May-19 01:30N 46°27' W 001°49'4 8.4
2018-May-19 01:00N 46°26' W 001°55'4 8.2
2018-May-19 00:30N 46°25' W 002°01'57 2.0
2018-May-17 19:57N 46°46' W 003°18'23 0.9
2018-May-16 18:21N 47°06' W 003°31'4 8.5
2018-May-16 17:55N 47°10' W 003°33'4 8.6
2018-May-16 17:27N 47°13' W 003°36'4 8.6
2018-May-16 17:00N 47°17' W 003°38'4 8.7
2018-May-16 16:30N 47°21' W 003°40'4 8.9
2018-May-16 16:00N 47°25' W 003°43'4 8.7
2018-May-16 15:30N 47°29' W 003°46'4 8.6
2018-May-16 14:59N 47°33' W 003°49'20 1.8
2018-May-16 03:47N 47°53' W 003°55'0 0.0
2018-May-16 02:09N 47°53' W 003°55'0 0.0
2018-May-16 01:59N 47°53' W 003°55'0 0.0
2018-May-15 03:13N 47°53' W 003°55'0 0.0
2018-May-15 03:00N 47°53' W 003°55'0 0.0
2018-May-15 02:26N 47°53' W 003°55'0 0.0
2018-May-15 01:58N 47°53' W 003°55'0 0.0
2018-May-15 01:30N 47°53' W 003°55'0 0.0
2018-May-15 00:59N 47°53' W 003°55'0 0.0
2018-May-15 00:11N 47°53' W 003°55'  

Dump ship's entire track history